Česky Dansk Deutsch English Español Suomi Français Magyar Italiano Nederlands norsk Polski Português svenska Türkçe

 

Het Weer

Antalya (Turkije)

21:20, 11 agosto 2016 (GMT)

NWNNE
WE
SWSSE
Home            
Antalya Isparta Suleyman Demirel Cardak Dalaman Konya Afyon Rhodes / Maritsa Rhodes Airport Usak Paphos Airport Bodrum Milas Airport Aydin Athalassa Bodrum Ercan Sivrihisar Akrotiri Kos Airport Larnaca Airport Eskisehir Karpathos Airport Akhisar

Om een weerknop op uw website of weblog te plaatsen, copieer onderstaande code en plak die in uw pagina. In het eerste vakje staat HTML-code, in het tweede vakje UBB-code.


Add to Google

Details

Wind speed:2 bf, 4 kn, 2.1 m/s, 4.6 miles/h, 7.4 km/h
Wind direction:N, 360°
Visibilità totale:Maggiore di 10000 m, 10 km, 32800 ft, 6.2 miles
Clouds:Ein wenig bewölkt at 3000 ft, 914 m
Temperature:27°C, 81°F
Sensazione termica:31°C, 87°F
Temperatura di rugiada :24°C, 75°F
Pressione atmosferica:1008 hPa, 756.1 mmHg, 29.77 inHg, 0.995 atm
Umidità relativa:83.7 %
METAR:LTAI 112120Z 36004KT 9999 FEW030 27/24 Q1008 NOSIG

Snelkoppelingen

Actuele weersinformatie van de hele wereld. Voeg locaties toe met het plus (+) symbool. Deze snelkoppelingen kunnen worden toegevoegd aan Google.

Lid van de Technetium groep

website free tracking
StatCounter NetStat W3C Validator

02-10-2022 12:13:34
astro.technetium.be money.technetium.be phote.technetium.be tafeltennistafel.technetium.be www.ligfiets.net